Aérodrome :
LOGIN :

S'inscrire | Disclaimer

   EN    FR    IT 

 










Légende :    VFR   VFR Marginal   IFR   IFR Intensif   IFR Très Intensif
Visi : 
Plafond : 
>= 8 km
>= 3000ft
5 à 8 km
1000 à 3000 ft
1500m à 5 km
500 à 1000 ft
800 à 1500m
200 à 500 ft
< 800m
< 200 ft
Symboles :   Orages  Brouillard  Fortes neiges  Fortes précipitations  Vent > 20 kt
SIGMETs :   Divers  Orages  Givrage  Turbulence  Onde Orograph.  Cendres Volcan.






- Altitude de l'aérodrome : 1234 ft
- Code IATA : LUX


ELLX - Luxembourg Findel

DERNIER METAR :
  • 250420Z 31006KT CAVOK 08/07 Q1033 NOSIG

METARs EXPIRÉS :
  • 250350Z 29005KT CAVOK 08/07 Q1033 NOSIG
  • 250320Z 31004KT CAVOK 08/07 Q1033 NOSIG
  • 250250Z 32006KT CAVOK 08/07 Q1033 NOSIG
  • 250220Z AUTO 33005KT 9999 NCD 09/08 Q1033 NOSIG
  • 250150Z AUTO 32004KT 260V360 9999 NCD 09/08 Q1033 NOSIG

TAF TAF ELLX
Valide du 25 à 00h jusqu'au 26 à 06h UTC


242300Z 2500/2606 36007KT 9999 FEW030
ATIS : +352 4798 27300
Météo : +352 4798 27010 / 27050



MET'MAP, la Météo Aéronautique d'un coup d'oeil ! - Copyright ORBIFLY Décembre 2007 - Disclaimer

ORBIFLY MET'MAP TEAM :

Programmation & Développement : Alexandra Zaïnal
Sur une idée originale de : Baudouin d'Aumeries
Assistance à la programmation : Marc-Olivier Méhu
Soutien technique & logistique : Manuel Goepfert

Contact : metmap@orbifly.com




SOURCES & CREDITS :

   NOAA